Time;durP1;ratioP1;P1;durP2;ratioP2;P2;SDS_P1;SDS_P2;PMS_P1;PMS_P2;Temp;Humidity;BMP_temperature;BMP_pressure;BME280_temperature;BME280_humidity;BME280_pressure;Samples;Min_cycle;Max_cycle;Signal;HPM_P1;HPM_P2
2024/02/07 00:00:38;;;;;;;12.30;4.45;;;9.30;99.90;;;9.75;100.00;100357.66;5114427;28;20416;-70
2024/02/07 00:03:06;;;;;;;12.25;4.03;;;9.50;99.90;;;9.77;99.32;100369.97;5114139;28;20048;-70
2024/02/07 00:05:34;;;;;;;12.25;4.25;;;9.50;99.90;;;9.89;99.77;100367.19;5114398;28;20558;-70
2024/02/07 00:08:03;;;;;;;8.48;3.80;;;9.60;99.90;;;9.96;100.00;100357.47;5114007;28;20093;-70
2024/02/07 00:10:32;;;;;;;11.40;4.13;;;9.70;99.90;;;10.10;99.29;100366.16;5113929;28;20116;-70
2024/02/07 00:13:02;;;;;;;12.98;4.15;;;9.80;99.90;;;10.15;98.69;100360.81;5113970;28;20073;-71
2024/02/07 00:15:30;;;;;;;15.00;4.63;;;9.90;99.90;;;10.24;98.13;100361.56;5113978;28;20117;-70
2024/02/07 00:17:59;;;;;;;9.00;3.90;;;10.00;99.90;;;10.26;98.23;100358.94;5113871;28;20312;-70
2024/02/07 00:20:27;;;;;;;9.88;4.22;;;10.10;99.90;;;10.13;97.65;100366.09;5113787;28;20088;-70
2024/02/07 00:22:56;;;;;;;12.48;4.35;;;9.90;99.90;;;10.12;97.25;100337.06;5113846;28;20047;-70
2024/02/07 00:25:24;;;;;;;8.15;3.92;;;10.10;99.90;;;10.27;96.98;100373.88;5113682;28;20089;-70
2024/02/07 00:27:54;;;;;;;11.35;4.20;;;10.10;99.90;;;9.97;96.45;100370.63;5095706;28;20039;-70
2024/02/07 00:30:24;;;;;;;10.27;4.45;;;9.80;99.90;;;9.56;98.12;100362.22;5113636;28;20043;-71
2024/02/07 00:33:05;;;;;;;14.73;4.75;;;9.50;99.90;;;9.91;97.38;100367.22;5113919;28;20126;-70
2024/02/07 00:35:34;;;;;;;9.20;4.07;;;9.70;99.90;;;9.56;97.60;100364.84;5113536;28;20066;-70
2024/02/07 00:38:03;;;;;;;14.82;4.78;;;9.50;99.90;;;9.59;97.63;100359.56;5113429;28;20127;-70
2024/02/07 00:40:32;;;;;;;10.93;4.15;;;9.40;99.90;;;9.64;97.33;100363.03;5113599;28;20051;-69
2024/02/07 00:43:01;;;;;;;17.98;4.47;;;9.50;99.90;;;9.59;97.22;100359.56;5113552;28;20047;-70
2024/02/07 00:45:32;;;;;;;11.50;4.47;;;9.40;99.90;;;9.64;97.66;100359.53;5113409;28;20039;-70
2024/02/07 00:48:00;;;;;;;;;;;9.40;99.90;;;9.75;98.66;100363.84;5096215;28;20284;-70
2024/02/07 00:50:29;;;;;;;15.32;4.60;;;9.50;99.90;;;9.81;98.09;100369.03;5113292;28;20407;-70
2024/02/07 00:52:57;;;;;;;10.77;4.20;;;9.60;99.90;;;9.90;98.13;100363.69;5113268;28;20044;-70
2024/02/07 00:55:26;;;;;;;10.93;4.70;;;9.70;99.90;;;9.83;98.05;100366.41;5113235;28;20043;-70
2024/02/07 00:57:55;;;;;;;11.98;4.57;;;9.60;99.90;;;9.40;96.80;100363.25;5095227;28;20067;-70
2024/02/07 01:00:25;;;;;;;11.80;4.28;;;9.40;99.90;;;9.16;97.81;100366.06;5113708;28;20050;-70
2024/02/07 01:02:55;;;;;;;13.00;4.15;;;9.10;99.90;;;9.21;98.86;100366.03;5113277;28;20036;-70
2024/02/07 01:05:23;;;;;;;9.40;4.22;;;9.00;99.90;;;9.05;99.31;100352.97;5113336;28;20377;-70
2024/02/07 01:07:52;;;;;;;10.85;4.32;;;8.80;99.90;;;9.26;99.08;100356.31;5113098;28;20044;-70
2024/02/07 01:10:20;;;;;;;15.38;4.53;;;9.00;99.90;;;9.24;98.39;100353.69;5113226;28;20139;-70
2024/02/07 01:12:49;;;;;;;12.18;4.38;;;9.00;99.90;;;9.32;98.70;100349.25;5113110;28;20063;-70
2024/02/07 01:15:17;;;;;;;10.02;4.57;;;9.10;99.90;;;9.34;98.51;100350.09;5113045;28;20092;-70
2024/02/07 01:17:46;;;;;;;10.60;4.03;;;9.10;99.90;;;9.23;98.36;100361.63;5113531;28;20047;-70
2024/02/07 01:20:16;;;;;;;9.93;4.72;;;9.00;99.90;;;9.40;98.89;100365.00;5112882;28;20174;-71
2024/02/07 01:22:45;;;;;;;11.30;4.32;;;9.10;99.90;;;9.53;97.86;100356.09;5113032;28;20039;-70
2024/02/07 01:25:14;;;;;;;9.80;4.20;;;9.30;99.90;;;9.47;97.72;100357.03;5112940;28;20048;-72
2024/02/07 01:27:42;;;;;;;11.10;4.82;;;9.20;99.90;;;9.57;96.71;100365.75;5113237;28;20488;-70
2024/02/07 01:30:11;;;;;;;11.27;3.85;;;9.40;99.90;;;9.63;96.06;100363.94;5094887;28;20475;-70
2024/02/07 01:32:41;;;;;;;10.88;4.20;;;9.40;99.90;;;9.63;96.85;100356.00;5113407;28;20495;-69
2024/02/07 01:35:10;;;;;;;10.05;4.20;;;9.50;99.90;;;9.41;96.86;100357.06;5094868;28;20047;-70
2024/02/07 01:37:41;;;;;;;11.05;4.18;;;9.20;99.90;;;9.48;97.49;100357.91;5094861;28;20048;-70
2024/02/07 01:40:13;;;;;;;12.32;4.60;;;9.20;99.90;;;8.96;97.93;100363.53;5113358;28;20373;-70
2024/02/07 01:42:41;;;;;;;9.65;3.97;;;8.90;99.90;;;9.23;99.03;100353.72;5113085;28;20052;-70
2024/02/07 01:45:23;;;;;;;11.52;4.32;;;9.00;99.90;;;9.39;98.72;100363.28;5564094;22;20061;-61
2024/02/07 01:47:52;;;;;;;12.43;4.75;;;9.10;99.90;;;9.42;98.71;100361.47;5032847;28;20186;-62
2024/02/07 01:50:22;;;;;;;9.35;3.90;;;9.20;99.90;;;9.32;98.21;100333.41;5032188;28;20053;-60
2024/02/07 01:52:55;;;;;;;11.32;4.30;;;9.20;99.90;;;9.06;98.11;100365.25;5033613;28;20483;-61
2024/02/07 01:55:25;;;;;;;13.02;4.60;;;8.90;99.90;;;9.30;99.40;100361.56;5036608;28;20052;-62
2024/02/07 01:57:55;;;;;;;11.48;4.13;;;9.10;99.90;;;8.92;99.59;100355.69;5036339;28;20132;-60
2024/02/07 02:00:24;;;;;;;13.70;4.68;;;8.80;99.90;;;9.19;100.00;100366.06;5035242;28;20095;-61
2024/02/07 02:02:54;;;;;;;14.15;4.65;;;8.90;99.90;;;9.28;99.46;100365.09;5035180;28;20134;-61
2024/02/07 02:05:22;;;;;;;13.82;4.63;;;9.10;99.90;;;9.07;99.29;100369.66;5034259;28;20042;-66
2024/02/07 02:07:53;;;;;;;14.40;4.47;;;8.90;99.90;;;9.20;99.70;100369.53;5018235;28;20073;-61
2024/02/07 02:10:21;;;;;;;11.52;4.63;;;8.90;99.90;;;9.10;99.92;100330.03;5035858;28;20143;-61
2024/02/07 02:12:50;;;;;;;13.15;4.22;;;9.10;99.90;;;9.48;100.00;100374.63;5034248;28;20049;-61
2024/02/07 02:15:19;;;;;;;10.20;4.18;;;9.20;99.90;;;9.52;100.00;100386.91;5033987;28;20534;-61
2024/02/07 02:17:47;;;;;;;12.02;4.43;;;9.30;99.90;;;9.40;97.65;100384.38;5033699;28;20068;-62
2024/02/07 02:20:16;;;;;;;10.38;4.80;;;9.20;99.90;;;9.32;97.15;100380.91;5034015;28;20041;-61
2024/02/07 02:23:15;;;;;;;13.65;4.65;;;9.20;99.90;;;9.28;97.79;100410.84;5033649;28;20046;-61
2024/02/07 02:26:23;;;;;;;11.13;3.92;;;9.10;99.90;;;9.25;96.58;100413.50;5033616;28;20542;-62
2024/02/07 02:29:04;;;;;;;12.48;4.40;;;9.10;99.90;;;9.33;96.60;100409.03;5034033;28;20044;-61
2024/02/07 02:31:37;;;;;;;5.78;3.63;;;9.10;99.90;;;9.09;96.27;100415.38;5034482;28;20041;-63
2024/02/07 02:34:06;;;;;;;9.95;4.45;;;9.00;99.90;;;9.18;96.69;100411.78;5033849;28;20143;-61
2024/02/07 02:36:35;;;;;;;7.70;3.85;;;9.00;99.90;;;8.88;95.94;100401.41;5033407;28;20410;-60
2024/02/07 02:39:05;;;;;;;8.77;4.13;;;8.70;99.90;;;8.77;95.94;100403.22;5033236;28;20510;-64
2024/02/07 02:41:34;;;;;;;8.45;3.92;;;8.60;99.90;;;8.77;96.29;100412.00;5033615;28;20568;-62
2024/02/07 02:44:02;;;;;;;10.55;4.30;;;8.60;99.90;;;8.72;95.89;100405.88;5033325;28;20052;-62
2024/02/07 02:46:31;;;;;;;9.27;4.22;;;8.60;99.90;;;8.56;95.42;100408.56;5033483;28;20099;-61
2024/02/07 02:49:00;;;;;;;12.63;4.43;;;8.40;99.90;;;8.66;96.03;100411.19;5033214;28;20054;-62
2024/02/07 02:51:29;;;;;;;9.90;4.07;;;8.50;99.90;;;8.64;95.50;100417.34;5033138;28;20107;-61
2024/02/07 02:53:57;;;;;;;10.25;4.40;;;8.40;99.90;;;8.68;94.56;100403.25;5033089;28;20100;-61
2024/02/07 02:56:26;;;;;;;10.13;4.40;;;8.50;99.90;;;8.69;94.98;100405.03;5032997;28;20067;-62
2024/02/07 02:58:54;;;;;;;7.93;4.10;;;8.50;99.90;;;8.70;94.31;100402.38;5033170;28;20053;-61
2024/02/07 03:01:23;;;;;;;10.02;4.35;;;8.50;99.90;;;8.70;94.29;100409.41;5015607;28;20064;-63
2024/02/07 03:03:54;;;;;;;10.68;4.50;;;8.60;99.90;;;8.64;94.83;100396.25;5032626;28;20053;-61
2024/02/07 03:06:37;;;;;;;12.02;4.80;;;8.50;99.90;;;8.73;94.75;100397.06;5033240;28;20045;-61
2024/02/07 03:09:07;;;;;;;8.07;4.53;;;8.50;99.90;;;8.66;94.15;100395.38;5033123;28;20064;-62
2024/02/07 03:11:37;;;;;;;;;;;8.50;99.90;;;8.57;94.14;100371.69;5033321;28;20050;-62
2024/02/07 03:14:06;;;;;;;8.65;3.75;;;8.50;99.90;;;8.80;94.70;100397.94;5032736;28;19921;-62
2024/02/07 03:16:35;;;;;;;11.95;4.38;;;8.60;99.90;;;8.80;94.59;100393.53;5032686;28;20069;-63
2024/02/07 03:19:04;;;;;;;9.77;4.35;;;8.60;99.90;;;8.82;93.75;100396.16;5015070;28;20033;-63
2024/02/07 03:21:34;;;;;;;9.75;3.80;;;8.70;99.90;;;8.83;94.05;100393.50;5032823;28;20132;-61
2024/02/07 03:24:02;;;;;;;8.30;3.90;;;8.70;99.90;;;8.74;93.72;100388.28;5032585;28;20045;-63
2024/02/07 03:26:31;;;;;;;14.27;4.28;;;8.60;99.90;;;8.76;94.48;100386.53;5032474;28;20045;-61
2024/02/07 03:28:59;;;;;;;7.07;4.10;;;8.50;99.90;;;8.75;94.32;100378.63;5014807;28;20049;-61
2024/02/07 03:31:28;;;;;;;11.35;4.07;;;8.50;99.90;;;8.47;95.01;100382.25;5032410;28;20048;-61
2024/02/07 03:33:56;;;;;;;13.07;4.80;;;8.30;99.90;;;8.59;94.94;100374.31;5032350;28;20562;-63
2024/02/07 03:36:26;;;;;;;8.75;3.95;;;8.40;99.90;;;8.74;94.30;100376.88;5032494;28;20050;-62
2024/02/07 03:38:58;;;;;;;12.60;5.57;;;8.50;99.90;;;8.40;94.22;100380.53;5014803;28;20049;-61
2024/02/07 03:41:26;;;;;;;9.20;4.68;;;8.20;99.90;;;8.33;95.19;100381.44;5014333;28;20095;-63
2024/02/07 03:43:55;;;;;;;10.90;4.38;;;8.10;99.90;;;8.38;95.78;100388.44;5032124;28;20045;-61
2024/02/07 03:46:23;;;;;;;10.68;4.72;;;8.10;99.90;;;8.37;95.94;100388.44;5032202;28;20558;-61
2024/02/07 03:48:52;;;;;;;9.20;4.20;;;8.10;99.90;;;8.47;96.16;100387.53;5032302;28;20541;-61
2024/02/07 03:51:27;;;;;;;14.13;4.97;;;8.20;99.90;;;8.43;96.47;100380.53;5032432;28;20049;-61
2024/02/07 03:53:59;;;;;;;15.48;4.95;;;8.10;99.90;;;8.48;95.62;100376.13;5014370;28;20048;-61
2024/02/07 03:56:28;;;;;;;10.73;4.30;;;8.20;99.90;;;8.57;95.92;100381.34;5031961;28;20049;-62
2024/02/07 03:58:57;;;;;;;8.80;4.20;;;8.20;99.90;;;8.58;95.56;100381.34;5031791;28;20049;-61
2024/02/07 04:01:27;;;;;;;9.88;4.18;;;8.30;99.90;;;8.47;95.86;100384.91;5031816;28;20041;-61
2024/02/07 04:03:57;;;;;;;10.23;4.30;;;8.20;99.90;;;8.45;95.97;100381.38;5031971;28;20057;-61
2024/02/07 04:06:28;;;;;;;10.15;4.57;;;8.20;99.90;;;8.50;96.29;100376.97;5031778;28;20053;-62
2024/02/07 04:08:58;;;;;;;10.27;4.68;;;8.20;99.90;;;8.63;96.42;100383.97;5031737;28;20096;-61
2024/02/07 05:17:17;;;;;;;10.73;4.85;;;8.50;99.90;;;8.85;95.03;100411.97;5030932;28;20037;-62
2024/02/07 05:19:46;;;;;;;13.32;4.65;;;8.60;99.90;;;9.01;95.66;100411.88;5013293;28;20044;-62
2024/02/07 05:22:16;;;;;;;12.23;4.82;;;8.70;99.90;;;9.03;96.13;100415.41;5030496;28;20667;-61
2024/02/07 05:24:45;;;;;;;12.18;4.57;;;8.70;99.90;;;9.13;95.41;100415.34;5013237;28;20057;-62
2024/02/07 05:27:15;;;;;;;10.45;4.18;;;8.90;99.90;;;9.22;95.70;100412.63;5032624;28;20052;-62
2024/02/07 05:29:45;;;;;;;11.68;5.10;;;9.00;99.90;;;9.26;95.36;100414.38;5034681;28;20297;-62
2024/02/07 05:32:13;;;;;;;13.63;4.93;;;9.00;99.90;;;9.25;95.43;100415.28;5017012;28;20046;-64
2024/02/07 05:34:42;;;;;;;14.90;5.18;;;9.00;99.90;;;9.31;94.84;100429.28;5034767;28;20049;-62
2024/02/07 05:37:11;;;;;;;15.63;4.93;;;9.10;99.90;;;9.36;94.86;100423.97;5034789;28;20041;-61
2024/02/07 05:39:39;;;;;;;11.73;4.47;;;9.10;99.90;;;9.39;95.00;100437.19;5034505;28;20050;-62
2024/02/07 05:42:08;;;;;;;11.85;5.05;;;9.10;99.90;;;9.25;94.25;100439.00;5034594;28;20049;-62
2024/02/07 05:44:36;;;;;;;15.73;4.72;;;9.00;99.90;;;9.21;94.34;100430.25;5034384;28;20048;-61
2024/02/07 05:47:06;;;;;;;15.82;5.13;;;8.90;99.90;;;9.34;94.99;100429.28;5034167;28;20053;-61
2024/02/07 05:49:34;;;;;;;14.52;5.00;;;9.00;99.90;;;9.40;94.83;100426.59;5034884;28;20038;-61
2024/02/07 05:52:03;;;;;;;17.52;4.75;;;9.10;99.90;;;9.44;94.81;100440.66;5034254;28;20049;-65
2024/02/07 05:54:33;;;;;;;10.30;4.40;;;9.20;99.90;;;9.33;94.13;100435.41;5034463;28;20034;-61
2024/02/07 05:57:02;;;;;;;13.55;5.00;;;9.10;99.90;;;9.35;94.38;100431.00;5034219;28;20129;-62
2024/02/07 05:59:30;;;;;;;10.60;4.78;;;9.10;99.90;;;9.32;94.19;100433.69;5034174;28;20116;-61
2024/02/07 06:01:58;;;;;;;13.93;4.97;;;9.00;99.90;;;9.36;94.49;100434.53;5034314;28;20042;-61
2024/02/07 06:04:28;;;;;;;11.95;4.60;;;9.10;99.90;;;9.37;94.58;100439.78;5034127;28;20056;-62
2024/02/07 06:06:57;;;;;;;9.98;4.43;;;9.00;99.90;;;9.47;94.32;100435.31;5034220;28;20080;-62
2024/02/07 06:09:25;;;;;;;12.13;5.10;;;9.10;99.90;;;9.50;94.71;100432.69;5034178;28;20072;-61
2024/02/07 06:11:54;;;;;;;12.05;4.70;;;9.20;99.90;;;9.46;94.46;100438.88;5034129;28;20053;-61
2024/02/07 06:14:22;;;;;;;11.13;4.88;;;9.10;99.90;;;9.39;94.21;100431.91;5033887;28;20049;-63
2024/02/07 06:16:51;;;;;;;10.57;4.38;;;9.10;99.90;;;9.53;94.54;100446.75;5034036;28;20077;-61
2024/02/07 06:19:19;;;;;;;11.43;4.72;;;9.20;99.90;;;9.52;94.34;100445.00;5033810;28;20052;-63
2024/02/07 06:21:51;;;;;;;17.15;4.72;;;9.20;99.90;;;9.34;94.23;100455.66;5033629;28;20069;-64
2024/02/07 06:24:19;;;;;;;9.18;4.00;;;9.10;99.90;;;9.23;94.15;100446.06;5033719;28;20063;-65
2024/02/07 06:26:48;;;;;;;9.60;4.45;;;8.90;99.90;;;9.20;94.63;100448.69;5034057;28;20128;-63
2024/02/07 06:29:16;;;;;;;9.10;4.50;;;8.90;99.90;;;9.34;95.47;100468.88;5033825;28;20049;-64
2024/02/07 06:31:44;;;;;;;11.80;4.65;;;9.00;99.90;;;9.21;95.25;100454.00;5016049;28;20046;-65
2024/02/07 06:34:13;;;;;;;10.88;4.90;;;8.90;99.90;;;9.15;94.91;100454.03;5033753;28;20049;-64
2024/02/07 06:36:41;;;;;;;13.20;4.70;;;8.80;99.90;;;9.03;95.33;100452.31;5033358;28;20099;-63
2024/02/07 06:39:11;;;;;;;16.35;5.10;;;8.70;99.90;;;9.11;95.50;100452.28;5032683;28;20435;-65
2024/02/07 06:41:40;;;;;;;9.15;4.88;;;8.80;99.90;;;9.04;95.41;100440.88;5015650;28;20505;-63
2024/02/07 06:44:08;;;;;;;11.40;5.10;;;8.70;99.90;;;9.13;95.41;100445.25;5015454;28;20038;-64
2024/02/07 06:46:42;;;;;;;14.02;5.50;;;8.80;99.90;;;9.14;95.21;100457.53;5033416;28;20058;-63
2024/02/07 06:49:11;;;;;;;13.23;5.15;;;8.80;99.90;;;9.13;95.40;100462.81;5033312;28;20068;-63
2024/02/07 06:51:40;;;;;;;12.73;5.43;;;8.80;99.90;;;9.17;95.12;100478.63;5033393;28;20560;-62
2024/02/07 06:54:11;;;;;;;16.95;5.85;;;8.80;99.90;;;9.21;94.61;100477.75;5033472;28;20049;-62
2024/02/07 06:56:40;;;;;;;;;;;8.90;99.90;;;9.24;95.03;100488.25;5033579;28;20114;-63
2024/02/07 06:59:11;;;;;;;15.38;5.95;;;8.90;99.90;;;9.28;94.99;100502.31;5032976;28;20011;-63
2024/02/07 07:01:41;;;;;;;15.90;5.57;;;9.00;99.90;;;9.35;94.75;100504.06;5015389;28;20056;-65
2024/02/07 07:04:10;;;;;;;15.75;5.72;;;9.00;99.90;;;9.44;94.55;100509.28;5015367;28;20153;-63
2024/02/07 07:06:38;;;;;;;13.88;5.55;;;9.20;99.90;;;9.36;94.26;100487.31;5015292;28;20617;-66
2024/02/07 07:09:07;;;;;;;20.02;6.03;;;9.20;99.90;;;9.44;94.22;100512.81;5032896;28;20121;-62
2024/02/07 07:11:37;;;;;;;15.70;6.13;;;9.20;99.90;;;9.30;93.62;100493.50;5032944;28;20038;-62
2024/02/07 07:14:05;;;;;;;16.70;6.43;;;9.00;99.90;;;9.33;93.84;100495.28;5032735;28;20120;-62
2024/02/07 07:16:34;;;;;;;16.60;5.97;;;9.10;99.90;;;9.46;94.20;100503.09;5032617;28;20081;-65
2024/02/07 07:19:02;;;;;;;22.48;7.07;;;9.20;99.90;;;9.25;93.49;100479.47;5032580;28;20059;-62
2024/02/07 07:21:31;;;;;;;19.40;6.45;;;9.20;99.90;;;9.51;93.64;100526.81;5014961;28;20046;-63
2024/02/07 07:23:59;;;;;;;21.70;6.05;;;9.20;99.90;;;9.54;93.52;100521.53;5032450;28;20049;-65
2024/02/07 07:26:28;;;;;;;19.77;6.35;;;9.30;99.90;;;9.56;93.91;100514.50;5032504;28;20052;-64
2024/02/07 07:28:58;;;;;;;14.57;5.53;;;9.30;99.90;;;9.33;92.83;100503.19;5014826;28;20394;-62
2024/02/07 07:31:27;;;;;;;;;;;9.10;99.90;;;9.15;93.77;100506.78;5015307;28;20050;-64
2024/02/07 07:33:55;;;;;;;13.98;5.95;;;8.90;99.90;;;9.25;93.67;100511.16;5032315;28;19925;-65
2024/02/07 07:36:26;;;;;;;14.73;6.22;;;8.90;99.90;;;9.34;93.70;100521.66;5014550;28;20499;-66
2024/02/07 07:38:55;;;;;;;15.93;6.15;;;9.00;99.90;;;9.42;93.95;100526.88;5032555;28;20045;-62
2024/02/07 07:41:24;;;;;;;18.77;6.93;;;9.10;99.90;;;9.47;94.18;100527.72;5032324;28;20088;-64
2024/02/07 07:43:53;;;;;;;18.95;6.25;;;9.10;99.90;;;9.49;93.72;100526.84;5032450;28;20065;-62
2024/02/07 07:46:23;;;;;;;18.95;5.68;;;9.10;99.90;;;9.53;93.39;100520.66;5033436;28;20482;-63
2024/02/07 07:48:51;;;;;;;27.45;6.57;;;9.20;99.90;;;9.56;93.14;100517.13;5032330;28;20051;-62
2024/02/07 07:51:20;;;;;;;25.13;7.30;;;9.30;99.90;;;9.60;92.83;100519.72;5014512;28;20060;-62
2024/02/07 07:53:49;;;;;;;29.67;7.45;;;9.30;99.90;;;9.62;92.65;100519.75;5034010;28;20442;-62
2024/02/07 07:56:18;;;;;;;22.13;6.60;;;9.30;99.90;;;9.60;91.51;100526.78;5033555;28;20057;-63
2024/02/07 07:58:48;;;;;;;25.98;6.97;;;9.30;99.90;;;9.60;90.84;100532.06;5032936;28;20049;-62
2024/02/07 08:01:22;;;;;;;34.58;7.95;;;9.30;99.90;;;9.61;90.43;100529.41;5016032;28;20132;-62
2024/02/07 08:03:52;;;;;;;32.50;7.32;;;9.30;99.90;;;9.60;90.07;100522.34;5034593;28;20054;-63
2024/02/07 08:06:21;;;;;;;34.28;7.53;;;9.30;99.90;;;9.65;89.50;100530.25;5033783;28;20045;-62
2024/02/07 08:08:49;;;;;;;33.97;8.02;;;9.40;99.90;;;9.69;88.77;100532.00;5033825;28;20050;-62
2024/02/07 08:11:18;;;;;;;32.42;7.63;;;9.40;99.90;;;9.61;88.10;100539.09;5033750;28;20483;-64
2024/02/07 08:13:46;;;;;;;25.70;7.63;;;9.40;99.90;;;9.75;87.76;100553.97;5033870;28;20136;-62
2024/02/07 08:16:14;;;;;;;22.17;6.57;;;9.50;99.90;;;9.70;87.64;100560.16;5033638;28;20491;-62
2024/02/07 08:18:44;;;;;;;28.63;7.03;;;9.40;99.90;;;9.70;88.25;100558.41;5033510;28;20057;-63
2024/02/07 08:21:13;;;;;;;26.33;6.47;;;9.40;99.90;;;9.71;88.07;100568.09;5033635;28;20080;-62
2024/02/07 08:23:41;;;;;;;30.88;7.15;;;9.50;99.90;;;9.72;87.94;100559.25;5033433;28;20109;-62
2024/02/07 08:26:11;;;;;;;26.10;7.22;;;9.50;99.90;;;9.69;87.29;100556.66;5033793;28;20054;-63
2024/02/07 08:28:39;;;;;;;24.98;6.60;;;9.40;99.90;;;9.73;87.11;100550.47;5033719;28;20514;-62
2024/02/07 08:31:11;;;;;;;28.98;7.45;;;9.50;99.90;;;9.61;87.01;100517.97;5033356;28;20092;-61
2024/02/07 08:33:39;;;;;;;30.42;7.00;;;9.50;99.90;;;9.75;86.29;100540.78;5033394;28;20046;-62
2024/02/07 08:36:10;;;;;;;25.92;7.55;;;9.50;99.90;;;9.77;85.91;100557.50;5033338;28;20037;-61
2024/02/07 08:38:41;;;;;;;27.10;7.13;;;9.50;99.90;;;9.82;86.51;100560.09;5033403;28;20080;-63
2024/02/07 08:41:09;;;;;;;27.40;7.50;;;9.50;99.90;;;9.82;86.61;100565.38;5033677;28;20062;-61
2024/02/07 08:43:37;;;;;;;31.17;7.65;;;9.60;99.90;;;9.86;86.07;100561.81;5033068;28;20053;-61
2024/02/07 08:46:06;;;;;;;27.38;8.02;;;9.60;99.90;;;9.91;85.86;100565.31;5032921;28;20123;-61
2024/02/07 08:48:34;;;;;;;32.03;8.43;;;9.60;99.90;;;9.90;85.93;100588.22;5033305;28;20076;-61
2024/02/07 08:51:04;;;;;;;25.55;7.80;;;9.60;99.90;;;9.88;85.99;100592.63;5033090;28;20046;-61
2024/02/07 08:53:33;;;;;;;26.30;7.03;;;9.60;99.90;;;9.81;85.73;100590.03;5033066;28;20662;-60
2024/02/07 08:56:02;;;;;;;27.92;7.78;;;9.50;99.90;;;9.89;86.02;100588.22;5033357;28;20372;-61
2024/02/07 08:58:30;;;;;;;24.00;7.28;;;9.50;99.90;;;9.93;86.42;100585.53;5033000;28;20081;-61
2024/02/07 09:01:09;;;;;;;32.20;7.60;;;9.60;99.90;;;9.97;86.08;100582.00;5033111;28;20049;-61
2024/02/07 09:03:43;;;;;;;33.83;7.55;;;9.70;99.90;;;9.94;85.63;100586.44;5032906;28;20056;-61
2024/02/07 09:06:20;;;;;;;31.42;7.43;;;9.70;99.90;;;9.99;84.98;100582.84;5032713;28;20068;-60
2024/02/07 09:08:57;;;;;;;29.13;7.43;;;9.70;99.90;;;9.98;84.44;100591.69;5032688;28;20056;-62
2024/02/07 09:11:29;;;;;;;27.65;7.75;;;9.70;99.90;;;9.95;83.31;100598.72;5032638;28;20049;-62
2024/02/07 09:13:58;;;;;;;23.73;6.85;;;9.70;99.90;;;9.93;82.45;100590.81;5032882;28;20057;-63
2024/02/07 09:16:27;;;;;;;26.17;7.40;;;9.60;99.90;;;9.93;81.78;100582.91;5032981;28;20084;-64
2024/02/07 09:18:55;;;;;;;30.23;6.75;;;9.70;99.90;;;9.93;81.29;100574.97;5033020;28;20077;-64
2024/02/07 09:21:26;;;;;;;27.52;7.50;;;9.70;99.90;;;9.93;80.63;100569.69;5032726;28;20049;-64
2024/02/07 09:23:58;;;;;;;24.13;6.82;;;9.70;99.90;;;9.88;80.51;100555.66;5032840;28;20136;-64
2024/02/07 09:26:30;;;;;;;25.92;6.45;;;9.70;99.90;;;9.53;77.87;100552.34;5032719;28;20495;-63
2024/02/07 09:28:58;;;;;;;31.75;7.22;;;9.50;99.90;;;9.40;77.73;100553.28;5032368;28;20446;-64
2024/02/07 09:31:27;;;;;;;25.30;6.80;;;9.40;99.90;;;8.98;78.67;100549.03;5030733;28;20050;-65
2024/02/07 09:33:55;;;;;;;28.75;6.57;;;8.90;99.90;;;9.21;79.34;100554.25;5030611;28;20498;-62
2024/02/07 09:36:24;;;;;;;22.75;6.20;;;9.00;99.90;;;9.23;78.17;100563.06;5030647;28;20495;-65
2024/02/07 09:38:52;;;;;;;28.30;6.80;;;9.10;99.90;;;9.13;77.50;100560.44;5030403;28;20482;-62
2024/02/07 09:41:24;;;;;;;29.77;7.53;;;9.00;99.90;;;9.24;77.84;100574.47;5030966;28;20049;-65
2024/02/07 09:43:56;;;;;;;25.73;6.38;;;9.00;99.90;;;9.38;78.75;100576.19;5030741;28;20539;-62
2024/02/07 09:46:26;;;;;;;32.25;7.20;;;9.20;99.90;;;8.87;78.82;100569.31;5030392;28;20592;-63
2024/02/07 09:48:56;;;;;;;23.58;7.05;;;8.80;99.90;;;8.16;79.64;100535.13;5030916;28;20057;-62
2024/02/07 09:51:25;;;;;;;24.27;6.85;;;8.30;99.90;;;8.36;81.29;100557.97;5030922;28;20049;-65
2024/02/07 09:53:54;;;;;;;26.38;6.70;;;8.20;99.90;;;7.76;80.78;100432.44;5030276;28;20402;-62
2024/02/07 09:56:24;;;;;;;29.98;7.43;;;8.30;99.90;;;8.67;81.15;100559.69;5030778;28;20678;-61
2024/02/07 09:58:55;;;;;;;24.35;7.28;;;8.40;99.90;;;8.97;81.91;100570.16;5030796;28;20418;-64
2024/02/07 10:01:27;;;;;;;27.60;7.75;;;8.60;99.90;;;8.88;81.15;100533.28;5030105;28;20046;-63
2024/02/07 10:03:58;;;;;;;26.10;7.25;;;8.80;99.90;;;8.88;80.52;100552.59;5030157;28;20073;-65
2024/02/07 10:06:27;;;;;;;30.05;6.78;;;8.80;99.90;;;9.02;80.77;100548.16;5030497;28;20057;-65
2024/02/07 10:08:56;;;;;;;30.42;7.22;;;8.90;99.90;;;9.18;79.73;100562.16;5030252;28;20148;-64
2024/02/07 10:11:27;;;;;;;33.97;7.82;;;9.00;99.90;;;9.24;79.40;100564.78;5012645;28;20049;-65
2024/02/07 10:13:56;;;;;;;34.97;8.32;;;9.10;99.90;;;9.23;78.91;100568.34;5031668;28;20052;-62
2024/02/07 10:16:26;;;;;;;31.60;7.10;;;9.10;99.90;;;8.85;78.91;100570.19;5034106;28;20037;-64
2024/02/07 10:18:55;;;;;;;31.17;7.32;;;8.80;99.90;;;8.88;78.89;100576.31;5033850;28;20053;-63
2024/02/07 10:21:34;;;;;;;29.37;7.73;;;8.70;99.90;;;9.02;78.24;100573.66;5033582;28;20045;-63
2024/02/07 10:24:04;;;;;;;31.92;7.95;;;8.80;99.90;;;9.23;78.59;100576.25;5033624;28;20086;-64
2024/02/07 10:26:34;;;;;;;25.92;7.18;;;9.00;99.90;;;8.80;78.92;100569.31;5033664;28;20091;-62
2024/02/07 10:29:07;;;;;;;33.88;8.30;;;8.70;99.90;;;9.09;78.31;100576.28;5034239;28;20095;-63
2024/02/07 10:31:36;;;;;;;26.42;7.07;;;8.80;99.90;;;9.16;79.10;100582.41;5016161;28;20144;-64
2024/02/07 10:34:05;;;;;;;26.10;6.72;;;9.00;99.90;;;9.06;76.29;100580.69;5033988;28;20046;-64
2024/02/07 10:36:33;;;;;;;28.60;7.38;;;9.00;99.90;;;8.87;76.23;100584.25;5033636;28;20168;-62
2024/02/07 10:39:03;;;;;;;33.22;6.72;;;8.80;99.90;;;8.67;76.34;100579.00;5033605;28;20476;-64
2024/02/07 10:41:33;;;;;;;32.00;7.10;;;8.50;99.90;;;9.01;76.13;100571.91;5015761;28;20042;-64
2024/02/07 10:44:08;;;;;;;21.80;6.63;;;8.80;99.90;;;8.56;74.12;100572.00;5033523;28;20073;-63
2024/02/07 10:46:37;;;;;;;20.02;6.32;;;8.60;99.90;;;8.85;75.17;100568.44;5015244;28;20057;-63
2024/02/07 10:49:07;;;;;;;24.13;6.50;;;8.70;99.90;;;9.07;75.42;100566.63;5033488;28;20121;-62
2024/02/07 10:51:37;;;;;;;23.77;6.47;;;8.90;99.90;;;8.74;74.80;100567.59;5033411;28;20124;-64
2024/02/07 10:54:07;;;;;;;29.27;6.95;;;8.60;99.90;;;9.52;75.95;100573.47;5033151;28;20136;-63
2024/02/07 10:56:39;;;;;;;;;;;9.20;99.90;;;9.01;73.70;100567.53;5033883;28;20069;-63
2024/02/07 10:59:07;;;;;;;28.15;7.13;;;9.00;99.90;;;9.07;74.28;100563.97;5033319;28;19924;-62
2024/02/07 11:01:36;;;;;;;26.15;7.05;;;8.90;99.90;;;9.86;76.06;100582.94;5032735;28;20033;-63
2024/02/07 11:04:06;;;;;;;24.27;6.47;;;9.50;99.90;;;10.28;74.90;100574.75;5032753;28;20131;-66
2024/02/07 11:06:35;;;;;;;24.27;6.60;;;10.00;99.90;;;10.48;73.13;100577.22;5032606;28;20087;-62
2024/02/07 11:09:07;;;;;;;25.42;6.95;;;10.30;99.90;;;10.78;72.54;100590.19;5033626;28;20052;-62
2024/02/07 11:11:37;;;;;;;25.77;6.78;;;10.60;99.90;;;10.34;71.56;100462.78;5032670;28;20407;-65
2024/02/07 11:14:07;;;;;;;20.75;6.10;;;10.90;99.90;;;10.72;68.78;100595.53;5033234;28;20049;-62
2024/02/07 11:16:36;;;;;;;29.53;6.27;;;10.70;99.90;;;11.17;70.78;100588.88;5032680;28;20391;-65
2024/02/07 11:19:04;;;;;;;29.75;7.10;;;11.00;99.90;;;11.24;68.44;100588.78;5032572;28;20284;-63
2024/02/07 11:21:37;;;;;;;22.42;6.68;;;11.10;99.90;;;11.50;68.81;100586.69;5033086;28;20100;-63
2024/02/07 11:24:08;;;;;;;30.08;6.47;;;11.30;99.90;;;11.53;66.53;100591.97;5032387;28;20050;-67
2024/02/07 11:26:38;;;;;;;18.70;5.97;;;11.40;99.90;;;11.43;64.76;100595.63;5032600;28;20049;-65
2024/02/07 11:29:06;;;;;;;24.63;6.75;;;11.40;99.90;;;11.24;65.96;100598.50;5032474;28;20049;-63
2024/02/07 11:31:35;;;;;;;24.77;7.07;;;11.10;99.90;;;11.11;66.33;100592.44;5014513;28;20403;-66
2024/02/07 11:34:04;;;;;;;24.88;7.03;;;10.90;99.90;;;11.47;67.49;100581.44;5032405;28;20147;-67
2024/02/07 11:36:35;;;;;;;23.73;6.40;;;11.20;99.90;;;10.58;65.85;100568.31;5032566;28;20054;-64